sensor_id;sensor_type;location;lat;lon;timestamp;pressure;altitude;pressure_sealevel;temperature;humidity
76086;BME280;64791;0.000;0.000;2023-07-13T00:01:42;94065.56;;;20.67;47.14
76086;BME280;64791;0.000;0.000;2023-07-13T00:04:08;94068.25;;;20.53;49.53
76086;BME280;64791;0.000;0.000;2023-07-13T00:06:34;94063.72;;;20.13;51.32
76086;BME280;64791;0.000;0.000;2023-07-13T00:09:00;94070.91;;;20.16;51.56
76086;BME280;64791;0.000;0.000;2023-07-13T00:11:26;94071.13;;;20.09;50.20
76086;BME280;64791;0.000;0.000;2023-07-13T00:13:52;94074.44;;;20.05;51.07
76086;BME280;64791;0.000;0.000;2023-07-13T00:16:18;94069.84;;;19.77;52.38
76086;BME280;64791;0.000;0.000;2023-07-13T00:18:44;94069.88;;;19.89;51.86
76086;BME280;64791;0.000;0.000;2023-07-13T00:21:10;94058.81;;;20.02;51.52
76086;BME280;64791;0.000;0.000;2023-07-13T00:23:37;94065.34;;;19.84;52.93
76086;BME280;64791;0.000;0.000;2023-07-13T00:26:04;94066.28;;;19.77;52.49
76086;BME280;64791;0.000;0.000;2023-07-13T00:28:30;94061.03;;;19.59;53.65
76086;BME280;64791;0.000;0.000;2023-07-13T00:30:55;94061.44;;;19.33;54.28
76086;BME280;64791;0.000;0.000;2023-07-13T00:33:21;94047.31;;;19.31;55.40
76086;BME280;64791;0.000;0.000;2023-07-13T00:35:48;94048.31;;;19.14;54.61
76086;BME280;64791;0.000;0.000;2023-07-13T00:38:14;94038.59;;;19.15;54.25
76086;BME280;64791;0.000;0.000;2023-07-13T00:40:40;94035.00;;;19.24;52.64
76086;BME280;64791;0.000;0.000;2023-07-13T00:43:15;94030.03;;;19.34;51.94
76086;BME280;64791;0.000;0.000;2023-07-13T00:48:24;94022.28;;;19.44;50.89
76086;BME280;64791;0.000;0.000;2023-07-13T00:50:52;94033.03;;;19.48;51.29
76086;BME280;64791;0.000;0.000;2023-07-13T00:53:19;94032.28;;;19.47;50.71
76086;BME280;64791;0.000;0.000;2023-07-13T00:55:46;94034.47;;;19.49;51.77
76086;BME280;64791;0.000;0.000;2023-07-13T00:58:14;94037.63;;;19.43;51.84
76086;BME280;64791;0.000;0.000;2023-07-13T01:00:40;94031.03;;;19.39;51.22
76086;BME280;64791;0.000;0.000;2023-07-13T01:03:07;94043.91;;;19.32;51.62
76086;BME280;64791;0.000;0.000;2023-07-13T01:05:33;94042.78;;;19.26;55.35
76086;BME280;64791;0.000;0.000;2023-07-13T01:07:59;94056.03;;;19.04;56.02
76086;BME280;64791;0.000;0.000;2023-07-13T01:10:26;94052.38;;;19.02;55.50
76086;BME280;64791;0.000;0.000;2023-07-13T01:12:52;94038.50;;;19.04;55.49
76086;BME280;64791;0.000;0.000;2023-07-13T01:15:34;94038.88;;;18.98;55.68
76086;BME280;64791;0.000;0.000;2023-07-13T01:18:00;94040.47;;;18.80;55.98
76086;BME280;64791;0.000;0.000;2023-07-13T01:20:26;94042.19;;;18.64;56.78
76086;BME280;64791;0.000;0.000;2023-07-13T01:22:52;94036.66;;;18.54;56.50
76086;BME280;64791;0.000;0.000;2023-07-13T01:25:18;94025.88;;;18.39;56.99
76086;BME280;64791;0.000;0.000;2023-07-13T01:27:44;94033.53;;;18.39;57.69
76086;BME280;64791;0.000;0.000;2023-07-13T01:30:10;94034.19;;;18.49;57.23
76086;BME280;64791;0.000;0.000;2023-07-13T01:32:35;94032.59;;;18.46;57.23
76086;BME280;64791;0.000;0.000;2023-07-13T01:35:02;94037.19;;;18.41;57.51
76086;BME280;64791;0.000;0.000;2023-07-13T01:37:28;94033.88;;;18.24;59.18
76086;BME280;64791;0.000;0.000;2023-07-13T01:40:02;94032.72;;;18.17;58.62
76086;BME280;64791;0.000;0.000;2023-07-13T01:42:29;94030.09;;;18.09;58.62
76086;BME280;64791;0.000;0.000;2023-07-13T01:44:55;94029.47;;;18.21;58.22
76086;BME280;64791;0.000;0.000;2023-07-13T01:47:22;94036.19;;;17.96;57.64
76086;BME280;64791;0.000;0.000;2023-07-13T01:49:48;94045.13;;;18.04;59.93
76086;BME280;64791;0.000;0.000;2023-07-13T01:52:15;94042.34;;;18.04;59.01
76086;BME280;64791;0.000;0.000;2023-07-13T01:54:40;94054.53;;;17.99;58.43
76086;BME280;64791;0.000;0.000;2023-07-13T01:57:07;94035.56;;;17.67;59.52
76086;BME280;64791;0.000;0.000;2023-07-13T01:59:33;94034.53;;;17.44;60.79
76086;BME280;64791;0.000;0.000;2023-07-13T02:01:59;94028.81;;;17.51;60.97
76086;BME280;64791;0.000;0.000;2023-07-13T02:04:25;94034.88;;;17.38;60.09
76086;BME280;64791;0.000;0.000;2023-07-13T02:06:51;94033.97;;;17.45;61.36
76086;BME280;64791;0.000;0.000;2023-07-13T02:09:16;94029.13;;;17.55;60.84
76086;BME280;64791;0.000;0.000;2023-07-13T02:11:42;94035.28;;;17.54;59.92
76086;BME280;64791;0.000;0.000;2023-07-13T02:14:08;94039.56;;;17.45;60.88
76086;BME280;64791;0.000;0.000;2023-07-13T02:16:34;94031.34;;;17.28;62.32
76086;BME280;64791;0.000;0.000;2023-07-13T02:19:00;94040.44;;;17.38;61.17
76086;BME280;64791;0.000;0.000;2023-07-13T02:21:26;94045.69;;;17.44;61.26
76086;BME280;64791;0.000;0.000;2023-07-13T02:23:51;94049.69;;;17.31;61.34
76086;BME280;64791;0.000;0.000;2023-07-13T02:26:17;94050.13;;;17.37;61.43
76086;BME280;64791;0.000;0.000;2023-07-13T02:28:43;94044.88;;;17.12;63.57
76086;BME280;64791;0.000;0.000;2023-07-13T02:31:11;94060.84;;;17.02;64.34
76086;BME280;64791;0.000;0.000;2023-07-13T02:33:37;94049.25;;;16.96;63.78
76086;BME280;64791;0.000;0.000;2023-07-13T02:36:03;94048.06;;;17.09;63.09
76086;BME280;64791;0.000;0.000;2023-07-13T02:38:31;94047.50;;;17.01;63.30
76086;BME280;64791;0.000;0.000;2023-07-13T02:41:01;94051.75;;;17.02;63.13
76086;BME280;64791;0.000;0.000;2023-07-13T02:43:27;94058.06;;;17.02;63.80
76086;BME280;64791;0.000;0.000;2023-07-13T02:45:52;94063.34;;;17.08;63.16
76086;BME280;64791;0.000;0.000;2023-07-13T02:48:18;94062.31;;;17.13;63.02
76086;BME280;64791;0.000;0.000;2023-07-13T02:50:44;94061.59;;;17.12;62.12
76086;BME280;64791;0.000;0.000;2023-07-13T02:53:10;94058.81;;;17.12;62.80
76086;BME280;64791;0.000;0.000;2023-07-13T02:55:36;94056.59;;;17.11;62.83
76086;BME280;64791;0.000;0.000;2023-07-13T02:58:02;94053.22;;;17.22;62.56
76086;BME280;64791;0.000;0.000;2023-07-13T03:00:27;94054.22;;;17.17;62.19
76086;BME280;64791;0.000;0.000;2023-07-13T03:02:54;94044.69;;;17.20;62.09
76086;BME280;64791;0.000;0.000;2023-07-13T03:05:22;94053.50;;;17.26;61.05
76086;BME280;64791;0.000;0.000;2023-07-13T03:07:47;94047.78;;;17.24;61.59
76086;BME280;64791;0.000;0.000;2023-07-13T03:10:13;94053.91;;;17.32;61.16
76086;BME280;64791;0.000;0.000;2023-07-13T03:12:44;94055.72;;;17.47;60.43
76086;BME280;64791;0.000;0.000;2023-07-13T03:15:19;94055.22;;;17.40;60.40
76086;BME280;64791;0.000;0.000;2023-07-13T03:17:46;94048.03;;;17.66;61.26
76086;BME280;64791;0.000;0.000;2023-07-13T03:20:12;94050.38;;;17.70;60.45
76086;BME280;64791;0.000;0.000;2023-07-13T03:22:38;94039.97;;;17.70;60.31
76086;BME280;64791;0.000;0.000;2023-07-13T03:25:04;94048.03;;;17.66;61.34
76086;BME280;64791;0.000;0.000;2023-07-13T03:27:30;94054.88;;;17.84;62.13
76086;BME280;64791;0.000;0.000;2023-07-13T03:29:56;94058.28;;;17.73;61.44
76086;BME280;64791;0.000;0.000;2023-07-13T03:32:22;94055.34;;;17.81;61.22
76086;BME280;64791;0.000;0.000;2023-07-13T03:34:47;94052.09;;;17.75;60.94
76086;BME280;64791;0.000;0.000;2023-07-13T03:37:13;94055.91;;;17.89;61.25
76086;BME280;64791;0.000;0.000;2023-07-13T03:39:39;94058.75;;;18.10;62.46
76086;BME280;64791;0.000;0.000;2023-07-13T03:42:05;94056.72;;;18.01;62.87
76086;BME280;64791;0.000;0.000;2023-07-13T03:44:32;94054.69;;;18.01;63.45
76086;BME280;64791;0.000;0.000;2023-07-13T03:46:57;94059.78;;;18.05;62.39
76086;BME280;64791;0.000;0.000;2023-07-13T03:49:23;94064.28;;;17.89;64.68
76086;BME280;64791;0.000;0.000;2023-07-13T03:51:49;94050.59;;;17.93;63.90
76086;BME280;64791;0.000;0.000;2023-07-13T03:54:14;94059.16;;;17.85;65.45
76086;BME280;64791;0.000;0.000;2023-07-13T03:56:40;94065.91;;;17.73;66.31
76086;BME280;64791;0.000;0.000;2023-07-13T03:59:08;94057.94;;;17.88;66.11
76086;BME280;64791;0.000;0.000;2023-07-13T04:01:34;94074.59;;;17.67;67.62
76086;BME280;64791;0.000;0.000;2023-07-13T04:04:00;94069.75;;;17.68;68.59
76086;BME280;64791;0.000;0.000;2023-07-13T04:06:28;94066.03;;;17.84;65.87
76086;BME280;64791;0.000;0.000;2023-07-13T04:08:56;94068.97;;;17.86;68.60
76086;BME280;64791;0.000;0.000;2023-07-13T04:11:22;94070.25;;;18.04;67.66
76086;BME280;64791;0.000;0.000;2023-07-13T04:13:48;94072.09;;;18.21;65.66
76086;BME280;64791;0.000;0.000;2023-07-13T04:16:14;94076.91;;;18.30;66.35
76086;BME280;64791;0.000;0.000;2023-07-13T04:18:40;94073.97;;;18.59;65.23
76086;BME280;64791;0.000;0.000;2023-07-13T04:21:06;94074.94;;;18.94;62.97
76086;BME280;64791;0.000;0.000;2023-07-13T04:23:32;94073.63;;;19.49;64.53
76086;BME280;64791;0.000;0.000;2023-07-13T04:25:58;94080.06;;;20.75;60.24
76086;BME280;64791;0.000;0.000;2023-07-13T04:28:24;94067.44;;;22.23;56.63
76086;BME280;64791;0.000;0.000;2023-07-13T04:30:51;94061.53;;;23.68;52.72
76086;BME280;64791;0.000;0.000;2023-07-13T04:33:17;94066.63;;;24.77;49.76
76086;BME280;64791;0.000;0.000;2023-07-13T04:35:43;94067.00;;;25.51;48.55
76086;BME280;64791;0.000;0.000;2023-07-13T04:38:12;94057.53;;;26.33;46.30
76086;BME280;64791;0.000;0.000;2023-07-13T04:40:38;94054.19;;;26.95;43.70
76086;BME280;64791;0.000;0.000;2023-07-13T04:43:04;94059.63;;;27.70;42.60
76086;BME280;64791;0.000;0.000;2023-07-13T04:45:30;94058.69;;;28.28;40.91
76086;BME280;64791;0.000;0.000;2023-07-13T04:47:56;94062.53;;;28.63;41.40
76086;BME280;64791;0.000;0.000;2023-07-13T04:50:22;94065.97;;;29.06;39.45
76086;BME280;64791;0.000;0.000;2023-07-13T04:52:49;94070.63;;;29.47;39.57
76086;BME280;64791;0.000;0.000;2023-07-13T04:55:15;94075.25;;;29.88;38.05
76086;BME280;64791;0.000;0.000;2023-07-13T04:57:41;94080.81;;;30.12;36.89
76086;BME280;64791;0.000;0.000;2023-07-13T05:00:07;94083.16;;;30.51;36.58
76086;BME280;64791;0.000;0.000;2023-07-13T05:02:33;94088.63;;;30.72;35.80
76086;BME280;64791;0.000;0.000;2023-07-13T05:05:00;94097.47;;;30.87;35.11
76086;BME280;64791;0.000;0.000;2023-07-13T05:07:26;94092.69;;;30.95;34.94
76086;BME280;64791;0.000;0.000;2023-07-13T05:09:52;94094.06;;;31.28;35.01
76086;BME280;64791;0.000;0.000;2023-07-13T05:12:18;94100.97;;;31.17;34.72
76086;BME280;64791;0.000;0.000;2023-07-13T05:14:44;94108.47;;;31.00;35.38
76086;BME280;64791;0.000;0.000;2023-07-13T05:17:09;94103.25;;;30.91;35.82
76086;BME280;64791;0.000;0.000;2023-07-13T05:19:35;94100.66;;;30.69;36.63
76086;BME280;64791;0.000;0.000;2023-07-13T05:22:01;94108.25;;;30.58;37.17
76086;BME280;64791;0.000;0.000;2023-07-13T05:24:28;94103.94;;;30.57;36.84
76086;BME280;64791;0.000;0.000;2023-07-13T05:26:54;94105.75;;;30.74;37.31
76086;BME280;64791;0.000;0.000;2023-07-13T05:29:20;94103.66;;;30.77;36.87
76086;BME280;64791;0.000;0.000;2023-07-13T05:31:46;94103.19;;;30.87;37.21
76086;BME280;64791;0.000;0.000;2023-07-13T05:34:12;94103.41;;;30.97;37.06
76086;BME280;64791;0.000;0.000;2023-07-13T05:36:38;94093.25;;;31.59;34.42
76086;BME280;64791;0.000;0.000;2023-07-13T05:39:04;94102.38;;;31.51;33.52
76086;BME280;64791;0.000;0.000;2023-07-13T05:41:29;94104.56;;;31.93;34.42
76086;BME280;64791;0.000;0.000;2023-07-13T05:43:55;94107.34;;;31.89;34.91
76086;BME280;64791;0.000;0.000;2023-07-13T05:46:21;94108.00;;;31.85;35.28
76086;BME280;64791;0.000;0.000;2023-07-13T05:48:47;94109.34;;;31.80;36.43
76086;BME280;64791;0.000;0.000;2023-07-13T05:51:13;94111.66;;;31.90;37.00
76086;BME280;64791;0.000;0.000;2023-07-13T05:53:39;94114.00;;;32.01;37.07
76086;BME280;64791;0.000;0.000;2023-07-13T05:56:05;94108.16;;;32.35;35.88
76086;BME280;64791;0.000;0.000;2023-07-13T05:58:31;94108.72;;;32.71;34.97
76086;BME280;64791;0.000;0.000;2023-07-13T06:01:01;94108.44;;;33.03;34.82
76086;BME280;64791;0.000;0.000;2023-07-13T06:03:27;94110.66;;;33.09;34.67
76086;BME280;64791;0.000;0.000;2023-07-13T06:05:53;94112.25;;;33.22;34.69
76086;BME280;64791;0.000;0.000;2023-07-13T06:08:18;94112.31;;;33.28;34.61
76086;BME280;64791;0.000;0.000;2023-07-13T06:10:44;94118.53;;;33.66;33.70
76086;BME280;64791;0.000;0.000;2023-07-13T06:13:10;94121.47;;;34.48;32.59
76086;BME280;64791;0.000;0.000;2023-07-13T06:15:36;94112.03;;;35.44;31.35
76086;BME280;64791;0.000;0.000;2023-07-13T06:18:02;94107.94;;;36.37;29.42
76086;BME280;64791;0.000;0.000;2023-07-13T06:20:28;94114.31;;;37.26;28.37
76086;BME280;64791;0.000;0.000;2023-07-13T06:22:54;94114.88;;;37.69;28.07
76086;BME280;64791;0.000;0.000;2023-07-13T06:25:20;94096.00;;;37.92;26.00
76086;BME280;64791;0.000;0.000;2023-07-13T06:27:46;94097.19;;;38.34;27.36
76086;BME280;64791;0.000;0.000;2023-07-13T06:30:12;94097.63;;;38.68;26.62
76086;BME280;64791;0.000;0.000;2023-07-13T06:32:38;94095.19;;;38.95;25.19
76086;BME280;64791;0.000;0.000;2023-07-13T06:35:04;94096.47;;;39.14;23.88
76086;BME280;64791;0.000;0.000;2023-07-13T06:37:30;94104.50;;;39.04;25.03
76086;BME280;64791;0.000;0.000;2023-07-13T06:39:56;94105.56;;;39.39;24.76
76086;BME280;64791;0.000;0.000;2023-07-13T06:42:22;94106.97;;;39.42;23.85
76086;BME280;64791;0.000;0.000;2023-07-13T06:44:48;94103.78;;;39.68;24.45
76086;BME280;64791;0.000;0.000;2023-07-13T06:47:14;94103.63;;;39.82;23.39
76086;BME280;64791;0.000;0.000;2023-07-13T06:49:39;94106.19;;;40.04;23.97
76086;BME280;64791;0.000;0.000;2023-07-13T06:52:05;94101.75;;;40.11;21.73
76086;BME280;64791;0.000;0.000;2023-07-13T06:54:31;94111.59;;;40.31;22.39
76086;BME280;64791;0.000;0.000;2023-07-13T06:56:57;94107.22;;;40.34;22.81
76086;BME280;64791;0.000;0.000;2023-07-13T06:59:23;94092.75;;;39.83;21.67
76086;BME280;64791;0.000;0.000;2023-07-13T07:01:49;94110.34;;;39.63;22.49
76086;BME280;64791;0.000;0.000;2023-07-13T07:04:15;94105.00;;;39.85;23.75
76086;BME280;64791;0.000;0.000;2023-07-13T07:06:40;94104.28;;;39.87;23.35
76086;BME280;64791;0.000;0.000;2023-07-13T07:09:06;94100.13;;;39.72;22.48
76086;BME280;64791;0.000;0.000;2023-07-13T07:11:32;94104.25;;;39.28;24.14
76086;BME280;64791;0.000;0.000;2023-07-13T07:13:58;94095.56;;;38.55;24.30
76086;BME280;64791;0.000;0.000;2023-07-13T07:16:24;94106.41;;;38.52;25.16
76086;BME280;64791;0.000;0.000;2023-07-13T07:18:51;94100.28;;;38.01;25.46
76086;BME280;64791;0.000;0.000;2023-07-13T07:21:16;94100.44;;;37.75;26.45
76086;BME280;64791;0.000;0.000;2023-07-13T07:23:42;94104.09;;;37.60;26.20
76086;BME280;64791;0.000;0.000;2023-07-13T07:26:08;94097.75;;;37.31;26.45
76086;BME280;64791;0.000;0.000;2023-07-13T07:28:35;94113.50;;;37.52;25.30
76086;BME280;64791;0.000;0.000;2023-07-13T07:31:01;94109.03;;;37.83;26.14
76086;BME280;64791;0.000;0.000;2023-07-13T07:33:27;94104.03;;;37.76;26.10
76086;BME280;64791;0.000;0.000;2023-07-13T07:35:53;94102.69;;;38.68;24.76
76086;BME280;64791;0.000;0.000;2023-07-13T07:38:19;94088.75;;;39.58;24.59
76086;BME280;64791;0.000;0.000;2023-07-13T07:40:45;94096.75;;;40.08;22.00
76086;BME280;64791;0.000;0.000;2023-07-13T07:43:11;94094.44;;;40.63;22.13
76086;BME280;64791;0.000;0.000;2023-07-13T07:45:38;94086.09;;;40.86;21.63
76086;BME280;64791;0.000;0.000;2023-07-13T07:48:04;94090.16;;;41.01;21.53
76086;BME280;64791;0.000;0.000;2023-07-13T07:50:30;94082.25;;;40.97;21.17
76086;BME280;64791;0.000;0.000;2023-07-13T07:52:56;94078.44;;;41.11;21.86
76086;BME280;64791;0.000;0.000;2023-07-13T07:55:22;94082.13;;;41.06;21.84
76086;BME280;64791;0.000;0.000;2023-07-13T07:57:49;94075.63;;;41.03;19.85
76086;BME280;64791;0.000;0.000;2023-07-13T08:00:15;94075.78;;;41.34;21.37
76086;BME280;64791;0.000;0.000;2023-07-13T08:02:41;94069.53;;;41.58;22.28
76086;BME280;64791;0.000;0.000;2023-07-13T08:05:08;94057.97;;;41.56;20.10
76086;BME280;64791;0.000;0.000;2023-07-13T08:07:34;94059.72;;;41.76;20.93
76086;BME280;64791;0.000;0.000;2023-07-13T08:10:00;94063.16;;;42.17;21.40
76086;BME280;64791;0.000;0.000;2023-07-13T08:12:26;94061.53;;;42.55;19.89
76086;BME280;64791;0.000;0.000;2023-07-13T08:14:52;94063.34;;;42.70;18.71
76086;BME280;64791;0.000;0.000;2023-07-13T08:17:19;94055.94;;;42.75;19.37
76086;BME280;64791;0.000;0.000;2023-07-13T08:19:45;94050.31;;;43.23;19.59
76086;BME280;64791;0.000;0.000;2023-07-13T08:22:11;94036.72;;;43.66;19.75
76086;BME280;64791;0.000;0.000;2023-07-13T08:24:37;94035.34;;;43.88;17.11
76086;BME280;64791;0.000;0.000;2023-07-13T08:27:03;94031.31;;;43.77;19.38
76086;BME280;64791;0.000;0.000;2023-07-13T08:29:29;94034.59;;;44.12;19.36
76086;BME280;64791;0.000;0.000;2023-07-13T08:31:57;94036.06;;;43.88;19.01
76086;BME280;64791;0.000;0.000;2023-07-13T08:34:23;94029.00;;;44.04;18.88
76086;BME280;64791;0.000;0.000;2023-07-13T08:36:49;94033.94;;;44.10;18.62
76086;BME280;64791;0.000;0.000;2023-07-13T08:39:15;94022.97;;;44.12;18.72
76086;BME280;64791;0.000;0.000;2023-07-13T08:41:44;94029.31;;;44.19;19.11
76086;BME280;64791;0.000;0.000;2023-07-13T08:44:20;94031.78;;;44.08;17.96
76086;BME280;64791;0.000;0.000;2023-07-13T08:46:51;94024.31;;;44.38;18.89
76086;BME280;64791;0.000;0.000;2023-07-13T08:49:19;94024.72;;;44.26;18.08
76086;BME280;64791;0.000;0.000;2023-07-13T08:51:53;94024.44;;;44.11;18.19
76086;BME280;64791;0.000;0.000;2023-07-13T08:54:36;94021.94;;;44.22;18.67
76086;BME280;64791;0.000;0.000;2023-07-13T08:57:17;94024.91;;;44.42;18.64
76086;BME280;64791;0.000;0.000;2023-07-13T08:59:44;94022.16;;;44.14;18.11
76086;BME280;64791;0.000;0.000;2023-07-13T09:02:19;94021.16;;;43.76;18.22
76086;BME280;64791;0.000;0.000;2023-07-13T09:04:49;94026.22;;;43.77;17.63
76086;BME280;64791;0.000;0.000;2023-07-13T09:07:21;94024.66;;;43.80;18.62
76086;BME280;64791;0.000;0.000;2023-07-13T09:10:13;94024.50;;;43.86;18.52
76086;BME280;64791;0.000;0.000;2023-07-13T09:15:13;94037.59;;;43.85;21.14
76086;BME280;64791;0.000;0.000;2023-07-13T09:17:45;94041.09;;;43.90;18.29
76086;BME280;64791;0.000;0.000;2023-07-13T09:20:25;94045.56;;;43.62;20.40
76086;BME280;64791;0.000;0.000;2023-07-13T09:22:52;94061.50;;;43.63;20.83
76086;BME280;64791;0.000;0.000;2023-07-13T09:25:35;94058.13;;;43.55;21.09
76086;BME280;64791;0.000;0.000;2023-07-13T09:30:46;94057.41;;;43.79;19.92
76086;BME280;64791;0.000;0.000;2023-07-13T09:33:19;94059.22;;;43.43;19.56
76086;BME280;64791;0.000;0.000;2023-07-13T09:35:45;94054.97;;;43.38;19.46
76086;BME280;64791;0.000;0.000;2023-07-13T09:38:15;94046.72;;;43.22;20.46
76086;BME280;64791;0.000;0.000;2023-07-13T09:43:26;94041.72;;;43.18;19.78
76086;BME280;64791;0.000;0.000;2023-07-13T09:45:55;94059.53;;;43.04;21.44
76086;BME280;64791;0.000;0.000;2023-07-13T09:48:21;94046.91;;;42.87;21.01
76086;BME280;64791;0.000;0.000;2023-07-13T09:50:46;94057.41;;;43.01;20.75
76086;BME280;64791;0.000;0.000;2023-07-13T09:53:16;94050.13;;;42.75;21.43
76086;BME280;64791;0.000;0.000;2023-07-13T09:55:44;94036.88;;;42.54;20.33
76086;BME280;64791;0.000;0.000;2023-07-13T09:58:14;94038.00;;;42.38;20.67
76086;BME280;64791;0.000;0.000;2023-07-13T10:00:41;94042.66;;;41.94;21.54
76086;BME280;64791;0.000;0.000;2023-07-13T10:03:23;94026.50;;;41.36;21.23
76086;BME280;64791;0.000;0.000;2023-07-13T10:05:50;94021.50;;;41.32;22.47
76086;BME280;64791;0.000;0.000;2023-07-13T10:08:29;94025.72;;;41.03;22.90
76086;BME280;64791;0.000;0.000;2023-07-13T10:11:00;94027.78;;;40.69;21.08
76086;BME280;64791;0.000;0.000;2023-07-13T10:13:33;94021.19;;;40.75;24.02
76086;BME280;64791;0.000;0.000;2023-07-13T10:16:02;94020.28;;;39.99;21.62
76086;BME280;64791;0.000;0.000;2023-07-13T10:18:31;94015.63;;;39.69;22.10
76086;BME280;64791;0.000;0.000;2023-07-13T10:21:08;94015.50;;;39.24;25.48
76086;BME280;64791;0.000;0.000;2023-07-13T10:23:36;94003.13;;;38.71;22.79
76086;BME280;64791;0.000;0.000;2023-07-13T10:26:01;94010.88;;;38.87;24.03
76086;BME280;64791;0.000;0.000;2023-07-13T10:28:30;94012.19;;;38.98;24.83
76086;BME280;64791;0.000;0.000;2023-07-13T10:30:57;94005.72;;;38.95;23.39
76086;BME280;64791;0.000;0.000;2023-07-13T10:33:24;94007.03;;;39.10;24.22
76086;BME280;64791;0.000;0.000;2023-07-13T10:35:51;94014.50;;;38.87;25.14
76086;BME280;64791;0.000;0.000;2023-07-13T10:38:20;94010.56;;;39.15;25.13
76086;BME280;64791;0.000;0.000;2023-07-13T10:40:56;94000.13;;;39.44;25.12
76086;BME280;64791;0.000;0.000;2023-07-13T10:43:24;93984.28;;;39.41;24.01
76086;BME280;64791;0.000;0.000;2023-07-13T10:45:52;93998.06;;;39.85;24.76
76086;BME280;64791;0.000;0.000;2023-07-13T10:48:20;93990.25;;;40.24;23.13
76086;BME280;64791;0.000;0.000;2023-07-13T10:50:48;93993.31;;;40.12;21.80
76086;BME280;64791;0.000;0.000;2023-07-13T10:53:17;93995.75;;;40.41;22.65
76086;BME280;64791;0.000;0.000;2023-07-13T10:58:23;93971.03;;;40.48;21.91
76086;BME280;64791;0.000;0.000;2023-07-13T11:00:51;93979.28;;;40.31;20.09
76086;BME280;64791;0.000;0.000;2023-07-13T11:03:19;93974.91;;;40.34;21.14
76086;BME280;64791;0.000;0.000;2023-07-13T11:05:51;93965.91;;;40.50;21.73
76086;BME280;64791;0.000;0.000;2023-07-13T11:08:33;93964.38;;;40.55;23.58
76086;BME280;64791;0.000;0.000;2023-07-13T11:11:02;93958.16;;;40.39;21.66
76086;BME280;64791;0.000;0.000;2023-07-13T11:13:36;93958.28;;;40.71;22.70
76086;BME280;64791;0.000;0.000;2023-07-13T11:16:11;93950.16;;;40.41;21.63
76086;BME280;64791;0.000;0.000;2023-07-13T11:18:38;93950.03;;;40.49;21.03
76086;BME280;64791;0.000;0.000;2023-07-13T11:21:17;93944.22;;;40.51;21.46
76086;BME280;64791;0.000;0.000;2023-07-13T11:23:45;93942.56;;;40.97;22.50
76086;BME280;64791;0.000;0.000;2023-07-13T11:28:55;93937.94;;;41.12;21.83
76086;BME280;64791;0.000;0.000;2023-07-13T11:31:21;93934.31;;;40.77;22.21
76086;BME280;64791;0.000;0.000;2023-07-13T11:33:52;93940.09;;;41.14;23.62
76086;BME280;64791;0.000;0.000;2023-07-13T11:36:19;93930.91;;;41.01;21.50
76086;BME280;64791;0.000;0.000;2023-07-13T11:41:59;93924.72;;;41.21;22.02
76086;BME280;64791;0.000;0.000;2023-07-13T11:44:26;93919.53;;;40.54;21.48
76086;BME280;64791;0.000;0.000;2023-07-13T11:46:53;93922.94;;;40.67;20.95
76086;BME280;64791;0.000;0.000;2023-07-13T11:49:20;93914.41;;;40.59;19.72
76086;BME280;64791;0.000;0.000;2023-07-13T11:51:46;93917.41;;;40.53;20.53
76086;BME280;64791;0.000;0.000;2023-07-13T11:54:32;93914.22;;;40.69;19.66
76086;BME280;64791;0.000;0.000;2023-07-13T11:57:02;93910.09;;;40.58;20.27
76086;BME280;64791;0.000;0.000;2023-07-13T11:59:32;93917.34;;;40.93;21.42
76086;BME280;64791;0.000;0.000;2023-07-13T12:01:59;93900.91;;;41.17;20.29
76086;BME280;64791;0.000;0.000;2023-07-13T12:04:27;93914.97;;;41.02;21.38
76086;BME280;64791;0.000;0.000;2023-07-13T12:06:57;93906.28;;;41.37;19.81
76086;BME280;64791;0.000;0.000;2023-07-13T12:09:25;93901.31;;;40.25;17.91
76086;BME280;64791;0.000;0.000;2023-07-13T12:11:51;93891.94;;;40.61;21.17
76086;BME280;64791;0.000;0.000;2023-07-13T12:14:18;93899.00;;;40.70;19.58
76086;BME280;64791;0.000;0.000;2023-07-13T12:16:47;93885.84;;;40.75;20.19
76086;BME280;64791;0.000;0.000;2023-07-13T12:19:25;93892.91;;;39.64;19.88
76086;BME280;64791;0.000;0.000;2023-07-13T12:21:56;93887.25;;;40.01;20.37
76086;BME280;64791;0.000;0.000;2023-07-13T12:24:23;93886.81;;;39.86;20.02
76086;BME280;64791;0.000;0.000;2023-07-13T12:26:54;93887.50;;;39.42;21.30
76086;BME280;64791;0.000;0.000;2023-07-13T12:29:20;93880.03;;;39.59;21.41
76086;BME280;64791;0.000;0.000;2023-07-13T12:31:48;93868.66;;;40.31;20.58
76086;BME280;64791;0.000;0.000;2023-07-13T12:34:16;93857.63;;;40.76;21.80
76086;BME280;64791;0.000;0.000;2023-07-13T12:36:46;93852.59;;;41.09;21.22
76086;BME280;64791;0.000;0.000;2023-07-13T12:39:15;93859.50;;;41.24;21.42
76086;BME280;64791;0.000;0.000;2023-07-13T12:41:41;93856.72;;;41.18;22.31
76086;BME280;64791;0.000;0.000;2023-07-13T12:44:14;93852.75;;;41.01;20.79
76086;BME280;64791;0.000;0.000;2023-07-13T12:46:50;93857.09;;;38.98;18.81
76086;BME280;64791;0.000;0.000;2023-07-13T12:49:19;93851.69;;;40.10;20.92
76086;BME280;64791;0.000;0.000;2023-07-13T12:52:32;93850.81;;;40.18;21.00
76086;BME280;64791;0.000;0.000;2023-07-13T12:54:38;93846.44;;;40.58;21.76
76086;BME280;64791;0.000;0.000;2023-07-13T12:57:05;93836.50;;;40.83;20.87
76086;BME280;64791;0.000;0.000;2023-07-13T12:59:34;93839.41;;;40.83;20.09
76086;BME280;64791;0.000;0.000;2023-07-13T13:02:02;93838.91;;;40.73;20.54
76086;BME280;64791;0.000;0.000;2023-07-13T13:04:28;93834.25;;;40.86;21.33
76086;BME280;64791;0.000;0.000;2023-07-13T13:07:01;93831.88;;;40.96;21.41
76086;BME280;64791;0.000;0.000;2023-07-13T13:09:28;93822.25;;;41.06;21.87
76086;BME280;64791;0.000;0.000;2023-07-13T13:11:53;93814.09;;;41.15;21.46
76086;BME280;64791;0.000;0.000;2023-07-13T13:14:19;93819.25;;;40.77;20.32
76086;BME280;64791;0.000;0.000;2023-07-13T13:16:46;93816.53;;;40.69;19.98
76086;BME280;64791;0.000;0.000;2023-07-13T13:21:42;93806.78;;;40.85;20.77
76086;BME280;64791;0.000;0.000;2023-07-13T13:24:16;93808.97;;;40.84;21.96
76086;BME280;64791;0.000;0.000;2023-07-13T13:26:42;93809.44;;;40.28;19.83
76086;BME280;64791;0.000;0.000;2023-07-13T13:29:17;93804.44;;;40.59;21.42
76086;BME280;64791;0.000;0.000;2023-07-13T13:31:44;93803.59;;;40.66;20.50
76086;BME280;64791;0.000;0.000;2023-07-13T13:34:10;93807.44;;;40.55;21.25